<?xml version="1.0" encoding="UTF-8" standalone="no" ?>
<gpx xmlns="http://www.topografix.com/GPX/1/1" xmlns:xsi="http://www.w3.org/2001/XMLSchema-instance" xsi:schemaLocation="http://www.topografix.com/GPX/1/1 http://www.topografix.com/GPX/1/1/gpx.xsd" version="1.1" creator="VisuGPX - https://www.visugpx.com">
  <metadata>
    <name>CRÊTE DE LA GALÈRE</name>
    <desc><![CDATA[Difficulté moyenne.]]></desc>
  </metadata>
  <trk>
    <name><![CDATA[CRÊTE DE LA GALÈRE_2]]></name>
    <trkseg>
      <trkpt lat="43.32004" lon="5.65013">
        <ele>533.6</ele>
        <time>2015-10-07T11:06:02Z</time>
      </trkpt>
      <trkpt lat="43.32004" lon="5.65013">
        <ele>533.9</ele>
        <time>2015-10-07T11:06:03Z</time>
      </trkpt>
      <trkpt lat="43.31988" lon="5.65025">
        <ele>524.9</ele>
        <time>2015-10-07T11:10:14Z</time>
      </trkpt>
      <trkpt lat="43.31989" lon="5.65">
        <ele>559.4</ele>
        <time>2015-10-07T11:20:01Z</time>
      </trkpt>
      <trkpt lat="43.31999" lon="5.6498">
        <ele>540.2</ele>
        <time>2015-10-07T11:28:57Z</time>
      </trkpt>
      <trkpt lat="43.31966" lon="5.6498">
        <ele>535.4</ele>
        <time>2015-10-07T11:29:48Z</time>
      </trkpt>
      <trkpt lat="43.31953" lon="5.64964">
        <ele>530.5</ele>
        <time>2015-10-07T11:30:13Z</time>
      </trkpt>
      <trkpt lat="43.31953" lon="5.64962">
        <ele>530.2</ele>
        <time>2015-10-07T11:30:14Z</time>
      </trkpt>
      <trkpt lat="43.31948" lon="5.64916">
        <ele>533.7</ele>
        <time>2015-10-07T11:30:46Z</time>
      </trkpt>
      <trkpt lat="43.3195" lon="5.64892">
        <ele>533.2</ele>
        <time>2015-10-07T11:31:03Z</time>
      </trkpt>
      <trkpt lat="43.31948" lon="5.64868">
        <ele>530.7</ele>
        <time>2015-10-07T11:31:21Z</time>
      </trkpt>
      <trkpt lat="43.31948" lon="5.64867">
        <ele>530.5</ele>
        <time>2015-10-07T11:31:22Z</time>
      </trkpt>
      <trkpt lat="43.31937" lon="5.64823">
        <ele>523</ele>
        <time>2015-10-07T11:31:56Z</time>
      </trkpt>
      <trkpt lat="43.31929" lon="5.64802">
        <ele>519.9</ele>
        <time>2015-10-07T11:32:11Z</time>
      </trkpt>
      <trkpt lat="43.3192" lon="5.64782">
        <ele>519</ele>
        <time>2015-10-07T11:32:30Z</time>
      </trkpt>
      <trkpt lat="43.31919" lon="5.64781">
        <ele>518.7</ele>
        <time>2015-10-07T11:32:31Z</time>
      </trkpt>
      <trkpt lat="43.31896" lon="5.64746">
        <ele>515.5</ele>
        <time>2015-10-07T11:33:02Z</time>
      </trkpt>
      <trkpt lat="43.31882" lon="5.64732">
        <ele>510.7</ele>
        <time>2015-10-07T11:33:20Z</time>
      </trkpt>
      <trkpt lat="43.3187" lon="5.64715">
        <ele>508.7</ele>
        <time>2015-10-07T11:33:37Z</time>
      </trkpt>
      <trkpt lat="43.3187" lon="5.64713">
        <ele>508.7</ele>
        <time>2015-10-07T11:33:38Z</time>
      </trkpt>
      <trkpt lat="43.31856" lon="5.64671">
        <ele>511.2</ele>
        <time>2015-10-07T11:34:09Z</time>
      </trkpt>
      <trkpt lat="43.31851" lon="5.64649">
        <ele>511</ele>
        <time>2015-10-07T11:34:26Z</time>
      </trkpt>
      <trkpt lat="43.31841" lon="5.64628">
        <ele>510.5</ele>
        <time>2015-10-07T11:34:42Z</time>
      </trkpt>
      <trkpt lat="43.3184" lon="5.64627">
        <ele>511.7</ele>
        <time>2015-10-07T11:34:43Z</time>
      </trkpt>
      <trkpt lat="43.31819" lon="5.64592">
        <ele>506.6</ele>
        <time>2015-10-07T11:35:17Z</time>
      </trkpt>
      <trkpt lat="43.31802" lon="5.64589">
        <ele>512.2</ele>
        <time>2015-10-07T11:35:33Z</time>
      </trkpt>
      <trkpt lat="43.31785" lon="5.64588">
        <ele>513.7</ele>
        <time>2015-10-07T11:35:49Z</time>
      </trkpt>
      <trkpt lat="43.31784" lon="5.64588">
        <ele>514.7</ele>
        <time>2015-10-07T11:35:50Z</time>
      </trkpt>
      <trkpt lat="43.31759" lon="5.6462">
        <ele>520</ele>
        <time>2015-10-07T11:36:32Z</time>
      </trkpt>
      <trkpt lat="43.31748" lon="5.64637">
        <ele>522.5</ele>
        <time>2015-10-07T11:36:51Z</time>
      </trkpt>
      <trkpt lat="43.31747" lon="5.64638">
        <ele>522.7</ele>
        <time>2015-10-07T11:36:52Z</time>
      </trkpt>
      <trkpt lat="43.31724" lon="5.64673">
        <ele>519</ele>
        <time>2015-10-07T11:37:28Z</time>
      </trkpt>
      <trkpt lat="43.31714" lon="5.64694">
        <ele>520.2</ele>
        <time>2015-10-07T11:37:46Z</time>
      </trkpt>
      <trkpt lat="43.31705" lon="5.64714">
        <ele>517.5</ele>
        <time>2015-10-07T11:38:03Z</time>
      </trkpt>
      <trkpt lat="43.31704" lon="5.64715">
        <ele>517.7</ele>
        <time>2015-10-07T11:38:04Z</time>
      </trkpt>
      <trkpt lat="43.31688" lon="5.6468">
        <ele>527</ele>
        <time>2015-10-07T11:38:48Z</time>
      </trkpt>
      <trkpt lat="43.31689" lon="5.64655">
        <ele>532</ele>
        <time>2015-10-07T11:39:22Z</time>
      </trkpt>
      <trkpt lat="43.31689" lon="5.64655">
        <ele>531.9</ele>
        <time>2015-10-07T11:39:23Z</time>
      </trkpt>
      <trkpt lat="43.31682" lon="5.64608">
        <ele>533.4</ele>
        <time>2015-10-07T11:40:27Z</time>
      </trkpt>
      <trkpt lat="43.31682" lon="5.64607">
        <ele>533.2</ele>
        <time>2015-10-07T11:40:28Z</time>
      </trkpt>
      <trkpt lat="43.31672" lon="5.64564">
        <ele>535.7</ele>
        <time>2015-10-07T11:41:01Z</time>
      </trkpt>
      <trkpt lat="43.3166" lon="5.64546">
        <ele>536.9</ele>
        <time>2015-10-07T11:41:17Z</time>
      </trkpt>
      <trkpt lat="43.31645" lon="5.64532">
        <ele>539.7</ele>
        <time>2015-10-07T11:41:34Z</time>
      </trkpt>
      <trkpt lat="43.31644" lon="5.64531">
        <ele>540</ele>
        <time>2015-10-07T11:41:35Z</time>
      </trkpt>
      <trkpt lat="43.31614" lon="5.64509">
        <ele>543.7</ele>
        <time>2015-10-07T11:42:17Z</time>
      </trkpt>
      <trkpt lat="43.316" lon="5.64496">
        <ele>545.2</ele>
        <time>2015-10-07T11:42:35Z</time>
      </trkpt>
      <trkpt lat="43.31599" lon="5.64495">
        <ele>545.2</ele>
        <time>2015-10-07T11:42:36Z</time>
      </trkpt>
      <trkpt lat="43.31571" lon="5.64471">
        <ele>544.5</ele>
        <time>2015-10-07T11:43:08Z</time>
      </trkpt>
      <trkpt lat="43.31557" lon="5.64457">
        <ele>544.5</ele>
        <time>2015-10-07T11:43:25Z</time>
      </trkpt>
      <trkpt lat="43.31546" lon="5.64438">
        <ele>547</ele>
        <time>2015-10-07T11:43:44Z</time>
      </trkpt>
      <trkpt lat="43.31546" lon="5.64437">
        <ele>547.2</ele>
        <time>2015-10-07T11:43:45Z</time>
      </trkpt>
      <trkpt lat="43.31525" lon="5.644">
        <ele>552.5</ele>
        <time>2015-10-07T11:44:22Z</time>
      </trkpt>
      <trkpt lat="43.31513" lon="5.64382">
        <ele>550.7</ele>
        <time>2015-10-07T11:44:41Z</time>
      </trkpt>
      <trkpt lat="43.31502" lon="5.64364">
        <ele>553.5</ele>
        <time>2015-10-07T11:44:59Z</time>
      </trkpt>
      <trkpt lat="43.31501" lon="5.64363">
        <ele>553.7</ele>
        <time>2015-10-07T11:45:00Z</time>
      </trkpt>
      <trkpt lat="43.31474" lon="5.6438">
        <ele>557.2</ele>
        <time>2015-10-07T11:45:51Z</time>
      </trkpt>
      <trkpt lat="43.31483" lon="5.64401">
        <ele>559</ele>
        <time>2015-10-07T11:46:56Z</time>
      </trkpt>
      <trkpt lat="43.31483" lon="5.64402">
        <ele>559</ele>
        <time>2015-10-07T11:46:57Z</time>
      </trkpt>
      <trkpt lat="43.31489" lon="5.64425">
        <ele>569.7</ele>
        <time>2015-10-07T11:48:02Z</time>
      </trkpt>
      <trkpt lat="43.31486" lon="5.64473">
        <ele>582.2</ele>
        <time>2015-10-07T11:49:39Z</time>
      </trkpt>
      <trkpt lat="43.31486" lon="5.64474">
        <ele>582.5</ele>
        <time>2015-10-07T11:49:40Z</time>
      </trkpt>
      <trkpt lat="43.31489" lon="5.64522">
        <ele>593.2</ele>
        <time>2015-10-07T11:50:55Z</time>
      </trkpt>
      <trkpt lat="43.31489" lon="5.64523">
        <ele>593.4</ele>
        <time>2015-10-07T11:50:56Z</time>
      </trkpt>
      <trkpt lat="43.31495" lon="5.6457">
        <ele>602.7</ele>
        <time>2015-10-07T11:51:59Z</time>
      </trkpt>
      <trkpt lat="43.31495" lon="5.64571">
        <ele>603</ele>
        <time>2015-10-07T11:52:00Z</time>
      </trkpt>
      <trkpt lat="43.31494" lon="5.64617">
        <ele>610.4</ele>
        <time>2015-10-07T11:53:00Z</time>
      </trkpt>
      <trkpt lat="43.31494" lon="5.64618">
        <ele>610.5</ele>
        <time>2015-10-07T11:53:01Z</time>
      </trkpt>
      <trkpt lat="43.31501" lon="5.64665">
        <ele>616.7</ele>
        <time>2015-10-07T11:54:03Z</time>
      </trkpt>
      <trkpt lat="43.31502" lon="5.64665">
        <ele>616.7</ele>
        <time>2015-10-07T11:54:04Z</time>
      </trkpt>
      <trkpt lat="43.31506" lon="5.64712">
        <ele>618.7</ele>
        <time>2015-10-07T11:55:09Z</time>
      </trkpt>
      <trkpt lat="43.31507" lon="5.64713">
        <ele>618.7</ele>
        <time>2015-10-07T11:55:10Z</time>
      </trkpt>
      <trkpt lat="43.31506" lon="5.6476">
        <ele>622</ele>
        <time>2015-10-07T11:55:55Z</time>
      </trkpt>
      <trkpt lat="43.31504" lon="5.64785">
        <ele>624.7</ele>
        <time>2015-10-07T11:56:18Z</time>
      </trkpt>
      <trkpt lat="43.31504" lon="5.64786">
        <ele>624.9</ele>
        <time>2015-10-07T11:56:19Z</time>
      </trkpt>
      <trkpt lat="43.31501" lon="5.64833">
        <ele>630</ele>
        <time>2015-10-07T11:57:10Z</time>
      </trkpt>
      <trkpt lat="43.31497" lon="5.64856">
        <ele>633.2</ele>
        <time>2015-10-07T11:57:33Z</time>
      </trkpt>
      <trkpt lat="43.31497" lon="5.64857">
        <ele>633.4</ele>
        <time>2015-10-07T11:57:34Z</time>
      </trkpt>
      <trkpt lat="43.31488" lon="5.64903">
        <ele>641</ele>
        <time>2015-10-07T11:58:27Z</time>
      </trkpt>
      <trkpt lat="43.31489" lon="5.64928">
        <ele>644.5</ele>
        <time>2015-10-07T11:58:52Z</time>
      </trkpt>
      <trkpt lat="43.3149" lon="5.64928">
        <ele>644.7</ele>
        <time>2015-10-07T11:58:53Z</time>
      </trkpt>
      <trkpt lat="43.31496" lon="5.64975">
        <ele>647.2</ele>
        <time>2015-10-07T11:59:38Z</time>
      </trkpt>
      <trkpt lat="43.31496" lon="5.64999">
        <ele>650</ele>
        <time>2015-10-07T12:00:03Z</time>
      </trkpt>
      <trkpt lat="43.31496" lon="5.65001">
        <ele>650.2</ele>
        <time>2015-10-07T12:00:04Z</time>
      </trkpt>
      <trkpt lat="43.31495" lon="5.65047">
        <ele>653</ele>
        <time>2015-10-07T12:00:41Z</time>
      </trkpt>
      <trkpt lat="43.31493" lon="5.6507">
        <ele>655</ele>
        <time>2015-10-07T12:01:00Z</time>
      </trkpt>
      <trkpt lat="43.3149" lon="5.65093">
        <ele>657.4</ele>
        <time>2015-10-07T12:01:18Z</time>
      </trkpt>
      <trkpt lat="43.31489" lon="5.65095">
        <ele>657.5</ele>
        <time>2015-10-07T12:01:19Z</time>
      </trkpt>
      <trkpt lat="43.31478" lon="5.65139">
        <ele>660.9</ele>
        <time>2015-10-07T12:01:58Z</time>
      </trkpt>
      <trkpt lat="43.31476" lon="5.65163">
        <ele>662</ele>
        <time>2015-10-07T12:02:17Z</time>
      </trkpt>
      <trkpt lat="43.31477" lon="5.65187">
        <ele>662.2</ele>
        <time>2015-10-07T12:02:35Z</time>
      </trkpt>
      <trkpt lat="43.31477" lon="5.65188">
        <ele>662.4</ele>
        <time>2015-10-07T12:02:36Z</time>
      </trkpt>
      <trkpt lat="43.31471" lon="5.65233">
        <ele>660.7</ele>
        <time>2015-10-07T12:03:11Z</time>
      </trkpt>
      <trkpt lat="43.31466" lon="5.65257">
        <ele>661.2</ele>
        <time>2015-10-07T12:03:27Z</time>
      </trkpt>
      <trkpt lat="43.3146" lon="5.6528">
        <ele>663.2</ele>
        <time>2015-10-07T12:03:44Z</time>
      </trkpt>
      <trkpt lat="43.3146" lon="5.65281">
        <ele>663.2</ele>
        <time>2015-10-07T12:03:45Z</time>
      </trkpt>
      <trkpt lat="43.31457" lon="5.65328">
        <ele>664</ele>
        <time>2015-10-07T12:04:17Z</time>
      </trkpt>
      <trkpt lat="43.31461" lon="5.65352">
        <ele>663.2</ele>
        <time>2015-10-07T12:04:33Z</time>
      </trkpt>
      <trkpt lat="43.31466" lon="5.65376">
        <ele>665</ele>
        <time>2015-10-07T12:04:52Z</time>
      </trkpt>
      <trkpt lat="43.31466" lon="5.65377">
        <ele>665.2</ele>
        <time>2015-10-07T12:04:53Z</time>
      </trkpt>
      <trkpt lat="43.31464" lon="5.65425">
        <ele>668</ele>
        <time>2015-10-07T12:05:27Z</time>
      </trkpt>
      <trkpt lat="43.31462" lon="5.65448">
        <ele>670.5</ele>
        <time>2015-10-07T12:05:43Z</time>
      </trkpt>
      <trkpt lat="43.31458" lon="5.65472">
        <ele>672</ele>
        <time>2015-10-07T12:06:00Z</time>
      </trkpt>
      <trkpt lat="43.31457" lon="5.65474">
        <ele>672.2</ele>
        <time>2015-10-07T12:06:01Z</time>
      </trkpt>
      <trkpt lat="43.31449" lon="5.65519">
        <ele>674.9</ele>
        <time>2015-10-07T12:06:33Z</time>
      </trkpt>
      <trkpt lat="43.31444" lon="5.65542">
        <ele>678</ele>
        <time>2015-10-07T12:06:52Z</time>
      </trkpt>
      <trkpt lat="43.31442" lon="5.65567">
        <ele>678</ele>
        <time>2015-10-07T12:07:45Z</time>
      </trkpt>
      <trkpt lat="43.31442" lon="5.65568">
        <ele>678</ele>
        <time>2015-10-07T12:07:46Z</time>
      </trkpt>
      <trkpt lat="43.3145" lon="5.65613">
        <ele>674.2</ele>
        <time>2015-10-07T12:08:16Z</time>
      </trkpt>
      <trkpt lat="43.31455" lon="5.65635">
        <ele>672.7</ele>
        <time>2015-10-07T12:08:32Z</time>
      </trkpt>
      <trkpt lat="43.31455" lon="5.65659">
        <ele>671.4</ele>
        <time>2015-10-07T12:08:47Z</time>
      </trkpt>
      <trkpt lat="43.31455" lon="5.6566">
        <ele>671.2</ele>
        <time>2015-10-07T12:08:48Z</time>
      </trkpt>
      <trkpt lat="43.31447" lon="5.65707">
        <ele>667.5</ele>
        <time>2015-10-07T12:09:18Z</time>
      </trkpt>
      <trkpt lat="43.31437" lon="5.65726">
        <ele>663.5</ele>
        <time>2015-10-07T12:09:36Z</time>
      </trkpt>
      <trkpt lat="43.3144" lon="5.65703">
        <ele>657.5</ele>
        <time>2015-10-07T12:09:59Z</time>
      </trkpt>
      <trkpt lat="43.3144" lon="5.65701">
        <ele>657.5</ele>
        <time>2015-10-07T12:10:00Z</time>
      </trkpt>
      <trkpt lat="43.31438" lon="5.65655">
        <ele>653.7</ele>
        <time>2015-10-07T12:10:30Z</time>
      </trkpt>
      <trkpt lat="43.31431" lon="5.65633">
        <ele>651.2</ele>
        <time>2015-10-07T12:10:46Z</time>
      </trkpt>
      <trkpt lat="43.31419" lon="5.65615">
        <ele>647.2</ele>
        <time>2015-10-07T12:11:02Z</time>
      </trkpt>
      <trkpt lat="43.31419" lon="5.65614">
        <ele>646.9</ele>
        <time>2015-10-07T12:11:03Z</time>
      </trkpt>
      <trkpt lat="43.31403" lon="5.65615">
        <ele>644</ele>
        <time>2015-10-07T12:11:53Z</time>
      </trkpt>
      <trkpt lat="43.31406" lon="5.65637">
        <ele>642.4</ele>
        <time>2015-10-07T12:12:11Z</time>
      </trkpt>
      <trkpt lat="43.31406" lon="5.65639">
        <ele>642.2</ele>
        <time>2015-10-07T12:12:12Z</time>
      </trkpt>
      <trkpt lat="43.31395" lon="5.65682">
        <ele>641.5</ele>
        <time>2015-10-07T12:12:43Z</time>
      </trkpt>
      <trkpt lat="43.31387" lon="5.65703">
        <ele>639.4</ele>
        <time>2015-10-07T12:12:58Z</time>
      </trkpt>
      <trkpt lat="43.31375" lon="5.65721">
        <ele>633.5</ele>
        <time>2015-10-07T12:13:17Z</time>
      </trkpt>
      <trkpt lat="43.31374" lon="5.65722">
        <ele>633.2</ele>
        <time>2015-10-07T12:13:18Z</time>
      </trkpt>
      <trkpt lat="43.3134" lon="5.65727">
        <ele>628</ele>
        <time>2015-10-07T12:13:51Z</time>
      </trkpt>
      <trkpt lat="43.31323" lon="5.65727">
        <ele>626.7</ele>
        <time>2015-10-07T12:14:06Z</time>
      </trkpt>
      <trkpt lat="43.31306" lon="5.65725">
        <ele>624.7</ele>
        <time>2015-10-07T12:14:22Z</time>
      </trkpt>
      <trkpt lat="43.31305" lon="5.65725">
        <ele>624.4</ele>
        <time>2015-10-07T12:14:23Z</time>
      </trkpt>
      <trkpt lat="43.3127" lon="5.65726">
        <ele>619.5</ele>
        <time>2015-10-07T12:14:57Z</time>
      </trkpt>
      <trkpt lat="43.31253" lon="5.6573">
        <ele>616.7</ele>
        <time>2015-10-07T12:15:13Z</time>
      </trkpt>
      <trkpt lat="43.31237" lon="5.65741">
        <ele>615</ele>
        <time>2015-10-07T12:15:29Z</time>
      </trkpt>
      <trkpt lat="43.31237" lon="5.65742">
        <ele>614.7</ele>
        <time>2015-10-07T12:15:30Z</time>
      </trkpt>
      <trkpt lat="43.31204" lon="5.65749">
        <ele>613.5</ele>
        <time>2015-10-07T12:15:59Z</time>
      </trkpt>
      <trkpt lat="43.31189" lon="5.65738">
        <ele>613.5</ele>
        <time>2015-10-07T12:16:14Z</time>
      </trkpt>
      <trkpt lat="43.31176" lon="5.65721">
        <ele>612</ele>
        <time>2015-10-07T12:16:30Z</time>
      </trkpt>
      <trkpt lat="43.31175" lon="5.6572">
        <ele>612</ele>
        <time>2015-10-07T12:16:31Z</time>
      </trkpt>
      <trkpt lat="43.31144" lon="5.65701">
        <ele>615.7</ele>
        <time>2015-10-07T12:17:23Z</time>
      </trkpt>
      <trkpt lat="43.31126" lon="5.65703">
        <ele>610.7</ele>
        <time>2015-10-07T12:17:43Z</time>
      </trkpt>
      <trkpt lat="43.31125" lon="5.65702">
        <ele>610.5</ele>
        <time>2015-10-07T12:17:44Z</time>
      </trkpt>
      <trkpt lat="43.31093" lon="5.65686">
        <ele>609.4</ele>
        <time>2015-10-07T12:18:16Z</time>
      </trkpt>
      <trkpt lat="43.3108" lon="5.65668">
        <ele>607.4</ele>
        <time>2015-10-07T12:18:34Z</time>
      </trkpt>
      <trkpt lat="43.31071" lon="5.65648">
        <ele>609.5</ele>
        <time>2015-10-07T12:18:48Z</time>
      </trkpt>
      <trkpt lat="43.3107" lon="5.65647">
        <ele>609.5</ele>
        <time>2015-10-07T12:18:49Z</time>
      </trkpt>
      <trkpt lat="43.31037" lon="5.65641">
        <ele>613.9</ele>
        <time>2015-10-07T12:19:19Z</time>
      </trkpt>
      <trkpt lat="43.31025" lon="5.65622">
        <ele>612.2</ele>
        <time>2015-10-07T12:19:34Z</time>
      </trkpt>
      <trkpt lat="43.31012" lon="5.65606">
        <ele>608.5</ele>
        <time>2015-10-07T12:19:51Z</time>
      </trkpt>
      <trkpt lat="43.31011" lon="5.65605">
        <ele>608.4</ele>
        <time>2015-10-07T12:19:52Z</time>
      </trkpt>
      <trkpt lat="43.30985" lon="5.65578">
        <ele>603</ele>
        <time>2015-10-07T12:20:20Z</time>
      </trkpt>
      <trkpt lat="43.30973" lon="5.6556">
        <ele>601.2</ele>
        <time>2015-10-07T12:20:35Z</time>
      </trkpt>
      <trkpt lat="43.3096" lon="5.65545">
        <ele>600</ele>
        <time>2015-10-07T12:20:49Z</time>
      </trkpt>
      <trkpt lat="43.30945" lon="5.65534">
        <ele>600</ele>
        <time>2015-10-07T12:21:03Z</time>
      </trkpt>
      <trkpt lat="43.30943" lon="5.65533">
        <ele>600.5</ele>
        <time>2015-10-07T12:21:04Z</time>
      </trkpt>
      <trkpt lat="43.30912" lon="5.65539">
        <ele>600.4</ele>
        <time>2015-10-07T12:21:32Z</time>
      </trkpt>
      <trkpt lat="43.30901" lon="5.65557">
        <ele>598.7</ele>
        <time>2015-10-07T12:21:47Z</time>
      </trkpt>
      <trkpt lat="43.30889" lon="5.65575">
        <ele>599.9</ele>
        <time>2015-10-07T12:22:02Z</time>
      </trkpt>
      <trkpt lat="43.30877" lon="5.65593">
        <ele>598</ele>
        <time>2015-10-07T12:22:18Z</time>
      </trkpt>
      <trkpt lat="43.30877" lon="5.65594">
        <ele>598</ele>
        <time>2015-10-07T12:22:19Z</time>
      </trkpt>
      <trkpt lat="43.30844" lon="5.65581">
        <ele>596.4</ele>
        <time>2015-10-07T12:22:49Z</time>
      </trkpt>
      <trkpt lat="43.3083" lon="5.65567">
        <ele>593.7</ele>
        <time>2015-10-07T12:23:04Z</time>
      </trkpt>
      <trkpt lat="43.30818" lon="5.6555">
        <ele>591.5</ele>
        <time>2015-10-07T12:23:20Z</time>
      </trkpt>
      <trkpt lat="43.30817" lon="5.65549">
        <ele>591.4</ele>
        <time>2015-10-07T12:23:21Z</time>
      </trkpt>
      <trkpt lat="43.30804" lon="5.65507">
        <ele>588</ele>
        <time>2015-10-07T12:23:51Z</time>
      </trkpt>
      <trkpt lat="43.30789" lon="5.65496">
        <ele>586.9</ele>
        <time>2015-10-07T12:24:06Z</time>
      </trkpt>
      <trkpt lat="43.30772" lon="5.65491">
        <ele>584</ele>
        <time>2015-10-07T12:24:22Z</time>
      </trkpt>
      <trkpt lat="43.30771" lon="5.65491">
        <ele>584</ele>
        <time>2015-10-07T12:24:23Z</time>
      </trkpt>
      <trkpt lat="43.30751" lon="5.65457">
        <ele>576.5</ele>
        <time>2015-10-07T12:24:56Z</time>
      </trkpt>
      <trkpt lat="43.30747" lon="5.65434">
        <ele>575.5</ele>
        <time>2015-10-07T12:25:11Z</time>
      </trkpt>
      <trkpt lat="43.30743" lon="5.6541">
        <ele>575</ele>
        <time>2015-10-07T12:25:26Z</time>
      </trkpt>
      <trkpt lat="43.30743" lon="5.65408">
        <ele>575</ele>
        <time>2015-10-07T12:25:27Z</time>
      </trkpt>
      <trkpt lat="43.3072" lon="5.65376">
        <ele>572.7</ele>
        <time>2015-10-07T12:25:57Z</time>
      </trkpt>
      <trkpt lat="43.30709" lon="5.65357">
        <ele>570.9</ele>
        <time>2015-10-07T12:26:13Z</time>
      </trkpt>
      <trkpt lat="43.30696" lon="5.65342">
        <ele>568.9</ele>
        <time>2015-10-07T12:26:28Z</time>
      </trkpt>
      <trkpt lat="43.30695" lon="5.65341">
        <ele>568.7</ele>
        <time>2015-10-07T12:26:29Z</time>
      </trkpt>
      <trkpt lat="43.30663" lon="5.65325">
        <ele>566.4</ele>
        <time>2015-10-07T12:27:00Z</time>
      </trkpt>
      <trkpt lat="43.30645" lon="5.65327">
        <ele>562.2</ele>
        <time>2015-10-07T12:27:16Z</time>
      </trkpt>
      <trkpt lat="43.30629" lon="5.65318">
        <ele>561</ele>
        <time>2015-10-07T12:27:31Z</time>
      </trkpt>
      <trkpt lat="43.30628" lon="5.65317">
        <ele>561</ele>
        <time>2015-10-07T12:27:32Z</time>
      </trkpt>
      <trkpt lat="43.30596" lon="5.65305">
        <ele>558.7</ele>
        <time>2015-10-07T12:28:01Z</time>
      </trkpt>
      <trkpt lat="43.30581" lon="5.65294">
        <ele>558.7</ele>
        <time>2015-10-07T12:28:15Z</time>
      </trkpt>
      <trkpt lat="43.30567" lon="5.6528">
        <ele>561.5</ele>
        <time>2015-10-07T12:28:27Z</time>
      </trkpt>
      <trkpt lat="43.30552" lon="5.6527">
        <ele>562</ele>
        <time>2015-10-07T12:28:41Z</time>
      </trkpt>
      <trkpt lat="43.3055" lon="5.6527">
        <ele>561.9</ele>
        <time>2015-10-07T12:28:42Z</time>
      </trkpt>
      <trkpt lat="43.30518" lon="5.65256">
        <ele>559.2</ele>
        <time>2015-10-07T12:29:12Z</time>
      </trkpt>
      <trkpt lat="43.30512" lon="5.65234">
        <ele>556.7</ele>
        <time>2015-10-07T12:29:28Z</time>
      </trkpt>
      <trkpt lat="43.30512" lon="5.6521">
        <ele>555.5</ele>
        <time>2015-10-07T12:29:43Z</time>
      </trkpt>
      <trkpt lat="43.30512" lon="5.65209">
        <ele>555.4</ele>
        <time>2015-10-07T12:29:44Z</time>
      </trkpt>
      <trkpt lat="43.30493" lon="5.65171">
        <ele>544.5</ele>
        <time>2015-10-07T12:30:21Z</time>
      </trkpt>
      <trkpt lat="43.30501" lon="5.65151">
        <ele>553.4</ele>
        <time>2015-10-07T12:30:34Z</time>
      </trkpt>
      <trkpt lat="43.30518" lon="5.65141">
        <ele>553.5</ele>
        <time>2015-10-07T12:30:50Z</time>
      </trkpt>
      <trkpt lat="43.30518" lon="5.65141">
        <ele>553.4</ele>
        <time>2015-10-07T12:30:51Z</time>
      </trkpt>
      <trkpt lat="43.30536" lon="5.65108">
        <ele>549.4</ele>
        <time>2015-10-07T12:31:30Z</time>
      </trkpt>
      <trkpt lat="43.30525" lon="5.65091">
        <ele>547.5</ele>
        <time>2015-10-07T12:31:46Z</time>
      </trkpt>
      <trkpt lat="43.30516" lon="5.6507">
        <ele>544.4</ele>
        <time>2015-10-07T12:32:02Z</time>
      </trkpt>
      <trkpt lat="43.30515" lon="5.65069">
        <ele>544.2</ele>
        <time>2015-10-07T12:32:03Z</time>
      </trkpt>
      <trkpt lat="43.30511" lon="5.65024">
        <ele>538.9</ele>
        <time>2015-10-07T12:32:34Z</time>
      </trkpt>
      <trkpt lat="43.30507" lon="5.65002">
        <ele>536.9</ele>
        <time>2015-10-07T12:32:49Z</time>
      </trkpt>
      <trkpt lat="43.30505" lon="5.64977">
        <ele>534</ele>
        <time>2015-10-07T12:33:05Z</time>
      </trkpt>
      <trkpt lat="43.30505" lon="5.64976">
        <ele>533.9</ele>
        <time>2015-10-07T12:33:06Z</time>
      </trkpt>
      <trkpt lat="43.30517" lon="5.64933">
        <ele>533.4</ele>
        <time>2015-10-07T12:33:33Z</time>
      </trkpt>
      <trkpt lat="43.30534" lon="5.64925">
        <ele>531.5</ele>
        <time>2015-10-07T12:33:49Z</time>
      </trkpt>
      <trkpt lat="43.3055" lon="5.64923">
        <ele>531.5</ele>
        <time>2015-10-07T12:34:03Z</time>
      </trkpt>
      <trkpt lat="43.30567" lon="5.64921">
        <ele>530</ele>
        <time>2015-10-07T12:34:19Z</time>
      </trkpt>
      <trkpt lat="43.30568" lon="5.64921">
        <ele>529.7</ele>
        <time>2015-10-07T12:34:20Z</time>
      </trkpt>
      <trkpt lat="43.30591" lon="5.64889">
        <ele>524.7</ele>
        <time>2015-10-07T12:34:52Z</time>
      </trkpt>
      <trkpt lat="43.30585" lon="5.64867">
        <ele>521.7</ele>
        <time>2015-10-07T12:35:08Z</time>
      </trkpt>
      <trkpt lat="43.30572" lon="5.64849">
        <ele>518.7</ele>
        <time>2015-10-07T12:35:23Z</time>
      </trkpt>
      <trkpt lat="43.30572" lon="5.64848">
        <ele>518.7</ele>
        <time>2015-10-07T12:35:24Z</time>
      </trkpt>
      <trkpt lat="43.30551" lon="5.64812">
        <ele>511.7</ele>
        <time>2015-10-07T12:35:54Z</time>
      </trkpt>
      <trkpt lat="43.30539" lon="5.64795">
        <ele>510.3</ele>
        <time>2015-10-07T12:36:08Z</time>
      </trkpt>
      <trkpt lat="43.30527" lon="5.64778">
        <ele>508.5</ele>
        <time>2015-10-07T12:36:23Z</time>
      </trkpt>
      <trkpt lat="43.30515" lon="5.64759">
        <ele>507.2</ele>
        <time>2015-10-07T12:36:38Z</time>
      </trkpt>
      <trkpt lat="43.30515" lon="5.64758">
        <ele>507.2</ele>
        <time>2015-10-07T12:36:39Z</time>
      </trkpt>
      <trkpt lat="43.30496" lon="5.64719">
        <ele>505</ele>
        <time>2015-10-07T12:37:09Z</time>
      </trkpt>
      <trkpt lat="43.305" lon="5.64696">
        <ele>504.7</ele>
        <time>2015-10-07T12:37:25Z</time>
      </trkpt>
      <trkpt lat="43.30505" lon="5.64673">
        <ele>504.3</ele>
        <time>2015-10-07T12:37:40Z</time>
      </trkpt>
      <trkpt lat="43.30505" lon="5.64671">
        <ele>504.2</ele>
        <time>2015-10-07T12:37:41Z</time>
      </trkpt>
      <trkpt lat="43.30489" lon="5.64634">
        <ele>504.3</ele>
        <time>2015-10-07T12:38:08Z</time>
      </trkpt>
      <trkpt lat="43.30474" lon="5.64624">
        <ele>501.5</ele>
        <time>2015-10-07T12:38:23Z</time>
      </trkpt>
      <trkpt lat="43.30456" lon="5.64623">
        <ele>500.2</ele>
        <time>2015-10-07T12:38:37Z</time>
      </trkpt>
      <trkpt lat="43.30439" lon="5.64621">
        <ele>500.5</ele>
        <time>2015-10-07T12:38:51Z</time>
      </trkpt>
      <trkpt lat="43.30438" lon="5.64621">
        <ele>500.1</ele>
        <time>2015-10-07T12:38:52Z</time>
      </trkpt>
      <trkpt lat="43.30425" lon="5.64578">
        <ele>500.2</ele>
        <time>2015-10-07T12:39:20Z</time>
      </trkpt>
      <trkpt lat="43.30423" lon="5.64554">
        <ele>499.5</ele>
        <time>2015-10-07T12:39:35Z</time>
      </trkpt>
      <trkpt lat="43.30428" lon="5.64532">
        <ele>501</ele>
        <time>2015-10-07T12:39:47Z</time>
      </trkpt>
      <trkpt lat="43.30437" lon="5.64512">
        <ele>500.6</ele>
        <time>2015-10-07T12:40:01Z</time>
      </trkpt>
      <trkpt lat="43.30438" lon="5.6451">
        <ele>500.5</ele>
        <time>2015-10-07T12:40:02Z</time>
      </trkpt>
      <trkpt lat="43.3046" lon="5.64475">
        <ele>508.1</ele>
        <time>2015-10-07T12:47:57Z</time>
      </trkpt>
      <trkpt lat="43.3046" lon="5.64474">
        <ele>507.8</ele>
        <time>2015-10-07T12:47:58Z</time>
      </trkpt>
      <trkpt lat="43.30458" lon="5.6443">
        <ele>500.1</ele>
        <time>2015-10-07T12:48:31Z</time>
      </trkpt>
      <trkpt lat="43.30447" lon="5.64411">
        <ele>499.2</ele>
        <time>2015-10-07T12:48:44Z</time>
      </trkpt>
      <trkpt lat="43.30437" lon="5.64392">
        <ele>494.2</ele>
        <time>2015-10-07T12:49:00Z</time>
      </trkpt>
      <trkpt lat="43.30437" lon="5.64391">
        <ele>494</ele>
        <time>2015-10-07T12:49:01Z</time>
      </trkpt>
      <trkpt lat="43.3042" lon="5.64351">
        <ele>487.7</ele>
        <time>2015-10-07T12:49:33Z</time>
      </trkpt>
      <trkpt lat="43.3041" lon="5.64331">
        <ele>485.2</ele>
        <time>2015-10-07T12:49:49Z</time>
      </trkpt>
      <trkpt lat="43.30402" lon="5.6431">
        <ele>482.5</ele>
        <time>2015-10-07T12:50:06Z</time>
      </trkpt>
      <trkpt lat="43.30402" lon="5.64309">
        <ele>482.3</ele>
        <time>2015-10-07T12:50:07Z</time>
      </trkpt>
      <trkpt lat="43.30433" lon="5.64328">
        <ele>484.5</ele>
        <time>2015-10-07T12:50:44Z</time>
      </trkpt>
      <trkpt lat="43.30447" lon="5.64341">
        <ele>482.7</ele>
        <time>2015-10-07T12:50:59Z</time>
      </trkpt>
      <trkpt lat="43.30464" lon="5.64348">
        <ele>480.8</ele>
        <time>2015-10-07T12:51:17Z</time>
      </trkpt>
      <trkpt lat="43.30465" lon="5.64347">
        <ele>480.5</ele>
        <time>2015-10-07T12:51:18Z</time>
      </trkpt>
      <trkpt lat="43.3044" lon="5.64313">
        <ele>472.8</ele>
        <time>2015-10-07T12:51:54Z</time>
      </trkpt>
      <trkpt lat="43.30429" lon="5.64296">
        <ele>469.7</ele>
        <time>2015-10-07T12:52:09Z</time>
      </trkpt>
      <trkpt lat="43.3042" lon="5.64276">
        <ele>466.6</ele>
        <time>2015-10-07T12:52:25Z</time>
      </trkpt>
      <trkpt lat="43.30419" lon="5.64275">
        <ele>466.3</ele>
        <time>2015-10-07T12:52:26Z</time>
      </trkpt>
      <trkpt lat="43.30403" lon="5.64234">
        <ele>462.3</ele>
        <time>2015-10-07T12:52:56Z</time>
      </trkpt>
      <trkpt lat="43.30395" lon="5.64212">
        <ele>460</ele>
        <time>2015-10-07T12:53:12Z</time>
      </trkpt>
      <trkpt lat="43.30386" lon="5.64192">
        <ele>457.7</ele>
        <time>2015-10-07T12:53:28Z</time>
      </trkpt>
      <trkpt lat="43.30385" lon="5.64191">
        <ele>457.5</ele>
        <time>2015-10-07T12:53:29Z</time>
      </trkpt>
      <trkpt lat="43.30367" lon="5.64151">
        <ele>454.2</ele>
        <time>2015-10-07T12:54:01Z</time>
      </trkpt>
      <trkpt lat="43.30359" lon="5.6413">
        <ele>454.8</ele>
        <time>2015-10-07T12:54:17Z</time>
      </trkpt>
      <trkpt lat="43.30352" lon="5.64108">
        <ele>454.2</ele>
        <time>2015-10-07T12:54:34Z</time>
      </trkpt>
      <trkpt lat="43.30352" lon="5.64106">
        <ele>453.8</ele>
        <time>2015-10-07T12:54:35Z</time>
      </trkpt>
      <trkpt lat="43.30345" lon="5.64061">
        <ele>446.2</ele>
        <time>2015-10-07T12:55:07Z</time>
      </trkpt>
      <trkpt lat="43.30344" lon="5.64038">
        <ele>442.2</ele>
        <time>2015-10-07T12:55:23Z</time>
      </trkpt>
      <trkpt lat="43.30346" lon="5.64014">
        <ele>442.1</ele>
        <time>2015-10-07T12:55:36Z</time>
      </trkpt>
      <trkpt lat="43.30347" lon="5.64013">
        <ele>442.1</ele>
        <time>2015-10-07T12:55:37Z</time>
      </trkpt>
      <trkpt lat="43.30345" lon="5.63967">
        <ele>442.1</ele>
        <time>2015-10-07T12:56:05Z</time>
      </trkpt>
      <trkpt lat="43.30337" lon="5.63945">
        <ele>440.3</ele>
        <time>2015-10-07T12:56:21Z</time>
      </trkpt>
      <trkpt lat="43.30332" lon="5.63921">
        <ele>438.5</ele>
        <time>2015-10-07T12:56:37Z</time>
      </trkpt>
      <trkpt lat="43.30331" lon="5.6392">
        <ele>438.3</ele>
        <time>2015-10-07T12:56:38Z</time>
      </trkpt>
      <trkpt lat="43.30312" lon="5.63883">
        <ele>438.7</ele>
        <time>2015-10-07T12:57:07Z</time>
      </trkpt>
      <trkpt lat="43.30296" lon="5.63874">
        <ele>439.3</ele>
        <time>2015-10-07T12:57:22Z</time>
      </trkpt>
      <trkpt lat="43.3028" lon="5.63866">
        <ele>438.1</ele>
        <time>2015-10-07T12:57:37Z</time>
      </trkpt>
      <trkpt lat="43.30263" lon="5.63861">
        <ele>439.7</ele>
        <time>2015-10-07T12:57:51Z</time>
      </trkpt>
      <trkpt lat="43.30262" lon="5.6386">
        <ele>440</ele>
        <time>2015-10-07T12:57:52Z</time>
      </trkpt>
      <trkpt lat="43.30229" lon="5.63874">
        <ele>438.6</ele>
        <time>2015-10-07T12:58:22Z</time>
      </trkpt>
      <trkpt lat="43.30212" lon="5.63878">
        <ele>436.3</ele>
        <time>2015-10-07T12:58:36Z</time>
      </trkpt>
      <trkpt lat="43.30195" lon="5.63879">
        <ele>435</ele>
        <time>2015-10-07T12:58:50Z</time>
      </trkpt>
      <trkpt lat="43.30178" lon="5.63879">
        <ele>432.2</ele>
        <time>2015-10-07T12:59:04Z</time>
      </trkpt>
      <trkpt lat="43.30177" lon="5.63879">
        <ele>432.1</ele>
        <time>2015-10-07T12:59:05Z</time>
      </trkpt>
      <trkpt lat="43.30145" lon="5.63878">
        <ele>429.3</ele>
        <time>2015-10-07T12:59:33Z</time>
      </trkpt>
      <trkpt lat="43.3013" lon="5.63891">
        <ele>429.2</ele>
        <time>2015-10-07T12:59:50Z</time>
      </trkpt>
      <trkpt lat="43.30128" lon="5.63914">
        <ele>426.7</ele>
        <time>2015-10-07T13:00:06Z</time>
      </trkpt>
      <trkpt lat="43.30128" lon="5.63916">
        <ele>426.5</ele>
        <time>2015-10-07T13:00:07Z</time>
      </trkpt>
      <trkpt lat="43.30131" lon="5.63962">
        <ele>421.7</ele>
        <time>2015-10-07T13:00:36Z</time>
      </trkpt>
      <trkpt lat="43.30133" lon="5.63986">
        <ele>421.3</ele>
        <time>2015-10-07T13:00:51Z</time>
      </trkpt>
      <trkpt lat="43.30136" lon="5.64009">
        <ele>419.1</ele>
        <time>2015-10-07T13:01:05Z</time>
      </trkpt>
      <trkpt lat="43.30133" lon="5.64032">
        <ele>415.7</ele>
        <time>2015-10-07T13:01:20Z</time>
      </trkpt>
      <trkpt lat="43.30132" lon="5.64034">
        <ele>416.1</ele>
        <time>2015-10-07T13:01:21Z</time>
      </trkpt>
      <trkpt lat="43.301" lon="5.64029">
        <ele>410.2</ele>
        <time>2015-10-07T13:01:49Z</time>
      </trkpt>
      <trkpt lat="43.30084" lon="5.6402">
        <ele>407.3</ele>
        <time>2015-10-07T13:02:03Z</time>
      </trkpt>
      <trkpt lat="43.30068" lon="5.6401">
        <ele>404.5</ele>
        <time>2015-10-07T13:02:18Z</time>
      </trkpt>
      <trkpt lat="43.30051" lon="5.64003">
        <ele>402</ele>
        <time>2015-10-07T13:02:33Z</time>
      </trkpt>
      <trkpt lat="43.30049" lon="5.64002">
        <ele>402</ele>
        <time>2015-10-07T13:02:34Z</time>
      </trkpt>
      <trkpt lat="43.30016" lon="5.63999">
        <ele>407.8</ele>
        <time>2015-10-07T13:03:05Z</time>
      </trkpt>
      <trkpt lat="43.30001" lon="5.64009">
        <ele>411.5</ele>
        <time>2015-10-07T13:03:21Z</time>
      </trkpt>
      <trkpt lat="43.29986" lon="5.64019">
        <ele>414.7</ele>
        <time>2015-10-07T13:03:35Z</time>
      </trkpt>
      <trkpt lat="43.29985" lon="5.6402">
        <ele>415</ele>
        <time>2015-10-07T13:03:36Z</time>
      </trkpt>
      <trkpt lat="43.29954" lon="5.64037">
        <ele>420.6</ele>
        <time>2015-10-07T13:04:05Z</time>
      </trkpt>
      <trkpt lat="43.29946" lon="5.64058">
        <ele>417.7</ele>
        <time>2015-10-07T13:04:22Z</time>
      </trkpt>
      <trkpt lat="43.2994" lon="5.64081">
        <ele>416.3</ele>
        <time>2015-10-07T13:04:37Z</time>
      </trkpt>
      <trkpt lat="43.2994" lon="5.64082">
        <ele>416.3</ele>
        <time>2015-10-07T13:04:38Z</time>
      </trkpt>
      <trkpt lat="43.2995" lon="5.64122">
        <ele>418.1</ele>
        <time>2015-10-07T13:05:06Z</time>
      </trkpt>
      <trkpt lat="43.29963" lon="5.64138">
        <ele>421.8</ele>
        <time>2015-10-07T13:05:20Z</time>
      </trkpt>
      <trkpt lat="43.29976" lon="5.64155">
        <ele>423.6</ele>
        <time>2015-10-07T13:05:35Z</time>
      </trkpt>
      <trkpt lat="43.29989" lon="5.64171">
        <ele>422.2</ele>
        <time>2015-10-07T13:05:51Z</time>
      </trkpt>
      <trkpt lat="43.2999" lon="5.64172">
        <ele>422.6</ele>
        <time>2015-10-07T13:05:52Z</time>
      </trkpt>
      <trkpt lat="43.3001" lon="5.64209">
        <ele>420.3</ele>
        <time>2015-10-07T13:06:22Z</time>
      </trkpt>
      <trkpt lat="43.29996" lon="5.64219">
        <ele>422.2</ele>
        <time>2015-10-07T13:06:37Z</time>
      </trkpt>
      <trkpt lat="43.29979" lon="5.64227">
        <ele>424.2</ele>
        <time>2015-10-07T13:06:52Z</time>
      </trkpt>
      <trkpt lat="43.29977" lon="5.64227">
        <ele>424.3</ele>
        <time>2015-10-07T13:06:53Z</time>
      </trkpt>
      <trkpt lat="43.29949" lon="5.64249">
        <ele>426.8</ele>
        <time>2015-10-07T13:07:21Z</time>
      </trkpt>
      <trkpt lat="43.29934" lon="5.64261">
        <ele>427.3</ele>
        <time>2015-10-07T13:07:35Z</time>
      </trkpt>
      <trkpt lat="43.2992" lon="5.64274">
        <ele>429.2</ele>
        <time>2015-10-07T13:07:49Z</time>
      </trkpt>
      <trkpt lat="43.29909" lon="5.64292">
        <ele>425.7</ele>
        <time>2015-10-07T13:08:03Z</time>
      </trkpt>
      <trkpt lat="43.29908" lon="5.64293">
        <ele>425.2</ele>
        <time>2015-10-07T13:08:04Z</time>
      </trkpt>
      <trkpt lat="43.29907" lon="5.64338">
        <ele>427.8</ele>
        <time>2015-10-07T13:08:33Z</time>
      </trkpt>
      <trkpt lat="43.29914" lon="5.64359">
        <ele>428.5</ele>
        <time>2015-10-07T13:08:48Z</time>
      </trkpt>
      <trkpt lat="43.29919" lon="5.64382">
        <ele>424.8</ele>
        <time>2015-10-07T13:09:04Z</time>
      </trkpt>
      <trkpt lat="43.29919" lon="5.64383">
        <ele>424.6</ele>
        <time>2015-10-07T13:09:05Z</time>
      </trkpt>
      <trkpt lat="43.29927" lon="5.64429">
        <ele>427.7</ele>
        <time>2015-10-07T13:09:36Z</time>
      </trkpt>
      <trkpt lat="43.29931" lon="5.64453">
        <ele>429.8</ele>
        <time>2015-10-07T13:09:51Z</time>
      </trkpt>
      <trkpt lat="43.29935" lon="5.64477">
        <ele>433.2</ele>
        <time>2015-10-07T13:10:06Z</time>
      </trkpt>
      <trkpt lat="43.29935" lon="5.64479">
        <ele>433.1</ele>
        <time>2015-10-07T13:10:07Z</time>
      </trkpt>
      <trkpt lat="43.29935" lon="5.64525">
        <ele>434.1</ele>
        <time>2015-10-07T13:10:36Z</time>
      </trkpt>
      <trkpt lat="43.2994" lon="5.64548">
        <ele>442.2</ele>
        <time>2015-10-07T13:10:54Z</time>
      </trkpt>
      <trkpt lat="43.29957" lon="5.64552">
        <ele>445.5</ele>
        <time>2015-10-07T13:11:09Z</time>
      </trkpt>
      <trkpt lat="43.29958" lon="5.64552">
        <ele>445.3</ele>
        <time>2015-10-07T13:11:10Z</time>
      </trkpt>
      <trkpt lat="43.29988" lon="5.64573">
        <ele>444</ele>
        <time>2015-10-07T13:11:37Z</time>
      </trkpt>
      <trkpt lat="43.29988" lon="5.64596">
        <ele>440.2</ele>
        <time>2015-10-07T13:11:51Z</time>
      </trkpt>
      <trkpt lat="43.29989" lon="5.64619">
        <ele>440.7</ele>
        <time>2015-10-07T13:12:05Z</time>
      </trkpt>
      <trkpt lat="43.29997" lon="5.64641">
        <ele>440.6</ele>
        <time>2015-10-07T13:12:20Z</time>
      </trkpt>
      <trkpt lat="43.29998" lon="5.64642">
        <ele>441.1</ele>
        <time>2015-10-07T13:12:21Z</time>
      </trkpt>
      <trkpt lat="43.30015" lon="5.64681">
        <ele>444.5</ele>
        <time>2015-10-07T13:12:49Z</time>
      </trkpt>
      <trkpt lat="43.30025" lon="5.64701">
        <ele>442</ele>
        <time>2015-10-07T13:13:04Z</time>
      </trkpt>
      <trkpt lat="43.30033" lon="5.64721">
        <ele>443.2</ele>
        <time>2015-10-07T13:13:18Z</time>
      </trkpt>
      <trkpt lat="43.30039" lon="5.64743">
        <ele>444.5</ele>
        <time>2015-10-07T13:13:32Z</time>
      </trkpt>
      <trkpt lat="43.30039" lon="5.64745">
        <ele>444.7</ele>
        <time>2015-10-07T13:13:33Z</time>
      </trkpt>
      <trkpt lat="43.30032" lon="5.64789">
        <ele>448.7</ele>
        <time>2015-10-07T13:13:59Z</time>
      </trkpt>
      <trkpt lat="43.3002" lon="5.64806">
        <ele>448.1</ele>
        <time>2015-10-07T13:14:13Z</time>
      </trkpt>
      <trkpt lat="43.30018" lon="5.6483">
        <ele>447.6</ele>
        <time>2015-10-07T13:14:33Z</time>
      </trkpt>
      <trkpt lat="43.30019" lon="5.64831">
        <ele>447.6</ele>
        <time>2015-10-07T13:14:34Z</time>
      </trkpt>
      <trkpt lat="43.30023" lon="5.64855">
        <ele>446.8</ele>
        <time>2015-10-07T13:16:51Z</time>
      </trkpt>
      <trkpt lat="43.30024" lon="5.64902">
        <ele>432.1</ele>
        <time>2015-10-07T13:17:43Z</time>
      </trkpt>
      <trkpt lat="43.30025" lon="5.64927">
        <ele>427.1</ele>
        <time>2015-10-07T13:18:05Z</time>
      </trkpt>
      <trkpt lat="43.30025" lon="5.64927">
        <ele>426.7</ele>
        <time>2015-10-07T13:18:06Z</time>
      </trkpt>
      <trkpt lat="43.30009" lon="5.64969">
        <ele>418.7</ele>
        <time>2015-10-07T13:19:01Z</time>
      </trkpt>
      <trkpt lat="43.3" lon="5.6499">
        <ele>412.7</ele>
        <time>2015-10-07T13:19:29Z</time>
      </trkpt>
      <trkpt lat="43.29999" lon="5.6499">
        <ele>412.7</ele>
        <time>2015-10-07T13:19:30Z</time>
      </trkpt>
      <trkpt lat="43.29968" lon="5.64992">
        <ele>403.7</ele>
        <time>2015-10-07T13:20:18Z</time>
      </trkpt>
      <trkpt lat="43.29954" lon="5.64977">
        <ele>397.3</ele>
        <time>2015-10-07T13:20:39Z</time>
      </trkpt>
      <trkpt lat="43.29953" lon="5.64976">
        <ele>397.1</ele>
        <time>2015-10-07T13:20:40Z</time>
      </trkpt>
      <trkpt lat="43.29922" lon="5.64958">
        <ele>392</ele>
        <time>2015-10-07T13:21:14Z</time>
      </trkpt>
      <trkpt lat="43.29909" lon="5.64943">
        <ele>388.6</ele>
        <time>2015-10-07T13:21:31Z</time>
      </trkpt>
      <trkpt lat="43.29896" lon="5.64928">
        <ele>384.7</ele>
        <time>2015-10-07T13:21:49Z</time>
      </trkpt>
      <trkpt lat="43.29895" lon="5.64927">
        <ele>384.6</ele>
        <time>2015-10-07T13:21:50Z</time>
      </trkpt>
      <trkpt lat="43.29869" lon="5.64897">
        <ele>377.7</ele>
        <time>2015-10-07T13:22:29Z</time>
      </trkpt>
      <trkpt lat="43.2986" lon="5.64877">
        <ele>373.5</ele>
        <time>2015-10-07T13:22:49Z</time>
      </trkpt>
      <trkpt lat="43.29854" lon="5.64854">
        <ele>368.5</ele>
        <time>2015-10-07T13:23:10Z</time>
      </trkpt>
      <trkpt lat="43.29854" lon="5.64853">
        <ele>368.1</ele>
        <time>2015-10-07T13:23:11Z</time>
      </trkpt>
      <trkpt lat="43.29857" lon="5.64806">
        <ele>357.3</ele>
        <time>2015-10-07T13:23:54Z</time>
      </trkpt>
      <trkpt lat="43.29857" lon="5.64782">
        <ele>355</ele>
        <time>2015-10-07T13:24:16Z</time>
      </trkpt>
      <trkpt lat="43.29856" lon="5.64781">
        <ele>355.1</ele>
        <time>2015-10-07T13:24:17Z</time>
      </trkpt>
      <trkpt lat="43.29824" lon="5.64775">
        <ele>351.1</ele>
        <time>2015-10-07T13:24:59Z</time>
      </trkpt>
      <trkpt lat="43.29806" lon="5.64779">
        <ele>347.2</ele>
        <time>2015-10-07T13:25:21Z</time>
      </trkpt>
      <trkpt lat="43.29805" lon="5.64778">
        <ele>347.1</ele>
        <time>2015-10-07T13:25:22Z</time>
      </trkpt>
      <trkpt lat="43.29773" lon="5.64763">
        <ele>337.7</ele>
        <time>2015-10-07T13:26:04Z</time>
      </trkpt>
      <trkpt lat="43.29768" lon="5.64786">
        <ele>330.7</ele>
        <time>2015-10-07T13:27:27Z</time>
      </trkpt>
      <trkpt lat="43.29768" lon="5.64787">
        <ele>330.8</ele>
        <time>2015-10-07T13:27:28Z</time>
      </trkpt>
      <trkpt lat="43.29758" lon="5.6482">
        <ele>325.2</ele>
        <time>2015-10-07T13:28:55Z</time>
      </trkpt>
      <trkpt lat="43.29757" lon="5.6482">
        <ele>325.2</ele>
        <time>2015-10-07T13:28:56Z</time>
      </trkpt>
      <trkpt lat="43.29726" lon="5.6484">
        <ele>325.8</ele>
        <time>2015-10-07T13:29:34Z</time>
      </trkpt>
      <trkpt lat="43.2973" lon="5.64864">
        <ele>317.2</ele>
        <time>2015-10-07T13:30:01Z</time>
      </trkpt>
      <trkpt lat="43.2973" lon="5.64865">
        <ele>316.8</ele>
        <time>2015-10-07T13:30:02Z</time>
      </trkpt>
      <trkpt lat="43.29695" lon="5.64854">
        <ele>304.2</ele>
        <time>2015-10-07T13:31:03Z</time>
      </trkpt>
      <trkpt lat="43.29695" lon="5.64854">
        <ele>304.1</ele>
        <time>2015-10-07T13:31:04Z</time>
      </trkpt>
      <trkpt lat="43.2966" lon="5.64848">
        <ele>290.5</ele>
        <time>2015-10-07T13:32:00Z</time>
      </trkpt>
      <trkpt lat="43.29645" lon="5.64836">
        <ele>282.1</ele>
        <time>2015-10-07T13:32:25Z</time>
      </trkpt>
      <trkpt lat="43.29645" lon="5.64836">
        <ele>281.5</ele>
        <time>2015-10-07T13:32:26Z</time>
      </trkpt>
      <trkpt lat="43.29628" lon="5.64796">
        <ele>279</ele>
        <time>2015-10-07T13:33:02Z</time>
      </trkpt>
      <trkpt lat="43.29612" lon="5.64786">
        <ele>279</ele>
        <time>2015-10-07T13:33:25Z</time>
      </trkpt>
      <trkpt lat="43.29596" lon="5.64797">
        <ele>274.1</ele>
        <time>2015-10-07T13:33:54Z</time>
      </trkpt>
      <trkpt lat="43.29596" lon="5.64797">
        <ele>273.6</ele>
        <time>2015-10-07T13:33:55Z</time>
      </trkpt>
      <trkpt lat="43.29573" lon="5.64779">
        <ele>236.8</ele>
        <time>2015-10-07T13:35:13Z</time>
      </trkpt>
      <trkpt lat="43.29573" lon="5.64778">
        <ele>236.3</ele>
        <time>2015-10-07T13:35:14Z</time>
      </trkpt>
      <trkpt lat="43.29562" lon="5.64737">
        <ele>250.6</ele>
        <time>2015-10-07T13:35:47Z</time>
      </trkpt>
      <trkpt lat="43.29547" lon="5.64725">
        <ele>247.3</ele>
        <time>2015-10-07T13:36:13Z</time>
      </trkpt>
      <trkpt lat="43.29529" lon="5.64725">
        <ele>241.3</ele>
        <time>2015-10-07T13:36:39Z</time>
      </trkpt>
      <trkpt lat="43.29528" lon="5.64725">
        <ele>241.3</ele>
        <time>2015-10-07T13:36:40Z</time>
      </trkpt>
      <trkpt lat="43.29495" lon="5.64714">
        <ele>234.3</ele>
        <time>2015-10-07T13:37:22Z</time>
      </trkpt>
      <trkpt lat="43.29478" lon="5.64709">
        <ele>229.1</ele>
        <time>2015-10-07T13:37:44Z</time>
      </trkpt>
      <trkpt lat="43.29477" lon="5.64709">
        <ele>228.8</ele>
        <time>2015-10-07T13:37:45Z</time>
      </trkpt>
      <trkpt lat="43.29444" lon="5.64703">
        <ele>222.6</ele>
        <time>2015-10-07T13:38:28Z</time>
      </trkpt>
      <trkpt lat="43.29427" lon="5.64699">
        <ele>214.5</ele>
        <time>2015-10-07T13:38:55Z</time>
      </trkpt>
      <trkpt lat="43.29426" lon="5.64699">
        <ele>214.1</ele>
        <time>2015-10-07T13:38:56Z</time>
      </trkpt>
      <trkpt lat="43.294" lon="5.64668">
        <ele>214.1</ele>
        <time>2015-10-07T13:39:31Z</time>
      </trkpt>
      <trkpt lat="43.29383" lon="5.64664">
        <ele>207.8</ele>
        <time>2015-10-07T13:39:58Z</time>
      </trkpt>
      <trkpt lat="43.29382" lon="5.64663">
        <ele>207.6</ele>
        <time>2015-10-07T13:39:59Z</time>
      </trkpt>
      <trkpt lat="43.29354" lon="5.64636">
        <ele>197.1</ele>
        <time>2015-10-07T13:40:38Z</time>
      </trkpt>
      <trkpt lat="43.29341" lon="5.64621">
        <ele>193.6</ele>
        <time>2015-10-07T13:40:54Z</time>
      </trkpt>
      <trkpt lat="43.29327" lon="5.64608">
        <ele>193.3</ele>
        <time>2015-10-07T13:41:11Z</time>
      </trkpt>
      <trkpt lat="43.29326" lon="5.64607">
        <ele>193.1</ele>
        <time>2015-10-07T13:41:12Z</time>
      </trkpt>
      <trkpt lat="43.29299" lon="5.64579">
        <ele>189.8</ele>
        <time>2015-10-07T13:41:50Z</time>
      </trkpt>
      <trkpt lat="43.29282" lon="5.64573">
        <ele>182.6</ele>
        <time>2015-10-07T13:42:11Z</time>
      </trkpt>
      <trkpt lat="43.29265" lon="5.64569">
        <ele>180.1</ele>
        <time>2015-10-07T13:42:30Z</time>
      </trkpt>
      <trkpt lat="43.29264" lon="5.64568">
        <ele>181.3</ele>
        <time>2015-10-07T13:42:31Z</time>
      </trkpt>
      <trkpt lat="43.2923" lon="5.64569">
        <ele>183.6</ele>
        <time>2015-10-07T13:43:11Z</time>
      </trkpt>
      <trkpt lat="43.29223" lon="5.64547">
        <ele>180.1</ele>
        <time>2015-10-07T13:48:13Z</time>
      </trkpt>
      <trkpt lat="43.29222" lon="5.64546">
        <ele>179.6</ele>
        <time>2015-10-07T13:48:14Z</time>
      </trkpt>
      <trkpt lat="43.29199" lon="5.64513">
        <ele>175.6</ele>
        <time>2015-10-07T13:48:48Z</time>
      </trkpt>
      <trkpt lat="43.29206" lon="5.64491">
        <ele>175.6</ele>
        <time>2015-10-07T13:49:05Z</time>
      </trkpt>
      <trkpt lat="43.29215" lon="5.64471">
        <ele>177.6</ele>
        <time>2015-10-07T13:49:19Z</time>
      </trkpt>
      <trkpt lat="43.29216" lon="5.64469">
        <ele>177.8</ele>
        <time>2015-10-07T13:49:20Z</time>
      </trkpt>
      <trkpt lat="43.2923" lon="5.64428">
        <ele>167.1</ele>
        <time>2015-10-07T13:49:52Z</time>
      </trkpt>
      <trkpt lat="43.29236" lon="5.64405">
        <ele>154.6</ele>
        <time>2015-10-07T13:50:13Z</time>
      </trkpt>
      <trkpt lat="43.29242" lon="5.64383">
        <ele>154.8</ele>
        <time>2015-10-07T13:50:25Z</time>
      </trkpt>
      <trkpt lat="43.29242" lon="5.64381">
        <ele>154.6</ele>
        <time>2015-10-07T13:50:26Z</time>
      </trkpt>
      <trkpt lat="43.29254" lon="5.64338">
        <ele>149.8</ele>
        <time>2015-10-07T13:50:54Z</time>
      </trkpt>
      <trkpt lat="43.29258" lon="5.64314">
        <ele>148.3</ele>
        <time>2015-10-07T13:51:09Z</time>
      </trkpt>
      <trkpt lat="43.29257" lon="5.64289">
        <ele>155.1</ele>
        <time>2015-10-07T13:51:19Z</time>
      </trkpt>
      <trkpt lat="43.29254" lon="5.64265">
        <ele>163.1</ele>
        <time>2015-10-07T13:51:29Z</time>
      </trkpt>
      <trkpt lat="43.29254" lon="5.64263">
        <ele>162.6</ele>
        <time>2015-10-07T13:51:30Z</time>
      </trkpt>
    </trkseg>
  </trk>
</gpx>